createdAt,value
2023-03-23T16:02:31.993Z,99205.63
2023-03-23T16:07:28.517Z,99201.09
2023-03-23T16:12:24.884Z,99208.47
2023-03-23T16:17:21.810Z,99218.78
2023-03-23T16:22:18.769Z,99230.72
2023-03-23T16:27:15.399Z,99220.50
2023-03-23T16:32:11.709Z,99198.47
2023-03-23T16:37:10.613Z,99205.28
2023-03-23T16:42:06.916Z,99190.22
2023-03-23T16:47:03.308Z,99183.47
2023-03-23T16:51:59.613Z,99195.47
2023-03-23T16:56:55.928Z,99206.19
2023-03-23T17:01:52.331Z,99215.84
2023-03-23T17:06:48.972Z,99201.25
2023-03-23T17:11:45.329Z,99216.59
2023-03-23T17:16:41.717Z,99209.41
2023-03-23T17:21:38.157Z,99198.13
2023-03-23T17:26:35.150Z,99227.44
2023-03-23T17:31:31.521Z,99235.44
2023-03-23T17:36:28.087Z,99245.59
2023-03-23T17:41:24.416Z,99245.69
2023-03-23T17:46:20.974Z,99260.69
2023-03-23T17:51:17.672Z,99258.44
2023-03-23T17:56:14.578Z,99268.13
2023-03-23T18:01:11.019Z,99262.88
2023-03-23T18:06:08.607Z,99270.00
2023-03-23T18:11:05.884Z,99260.00
2023-03-23T18:16:03.774Z,99263.94
2023-03-23T18:21:03.910Z,99257.34
2023-03-23T18:26:00.249Z,99261.66
2023-03-23T18:31:04.799Z,99255.34
2023-03-23T18:36:01.261Z,99244.53
2023-03-23T18:40:57.864Z,99242.47
2023-03-23T18:45:56.596Z,99230.53
2023-03-23T18:50:55.730Z,99231.47
2023-03-23T18:55:52.654Z,99230.03
2023-03-23T19:00:49.869Z,99217.00
2023-03-23T19:05:47.379Z,99214.50
2023-03-23T19:10:43.817Z,99213.59
2023-03-23T19:15:41.190Z,99211.72
2023-03-23T19:21:09.620Z,99201.59
2023-03-23T19:25:54.147Z,99202.81
2023-03-23T19:30:54.851Z,99186.06
2023-03-23T19:36:06.218Z,99184.38
2023-03-23T19:41:06.693Z,99179.06
2023-03-23T19:46:04.351Z,99167.97
2023-03-23T19:51:00.974Z,99173.22
2023-03-23T19:55:57.436Z,99173.38
2023-03-23T20:00:55.004Z,99165.63
2023-03-23T20:05:51.454Z,99161.47
2023-03-23T20:10:47.826Z,99158.84
2023-03-23T20:15:44.427Z,99158.75
2023-03-23T20:20:41.055Z,99159.94
2023-03-23T20:25:37.482Z,99152.41
2023-03-23T20:30:33.804Z,99145.28
2023-03-23T20:35:30.305Z,99139.84
2023-03-23T20:40:26.682Z,99140.16
2023-03-23T20:45:24.016Z,99132.31
2023-03-23T20:50:20.320Z,99117.22
2023-03-23T20:55:16.692Z,99111.44
2023-03-23T21:00:16.155Z,99114.75
2023-03-23T21:05:12.553Z,99094.56
2023-03-23T21:10:08.927Z,99094.31
2023-03-23T21:15:06.297Z,99092.00
2023-03-23T21:20:07.722Z,99092.13
2023-03-23T21:25:04.228Z,99094.88
2023-03-23T21:30:01.118Z,99086.13
2023-03-23T21:35:02.227Z,99082.44
2023-03-23T21:39:58.743Z,99078.91
2023-03-23T21:44:56.585Z,99071.53
2023-03-23T21:49:52.998Z,99064.47
2023-03-23T21:54:49.358Z,99053.75
2023-03-23T21:59:46.715Z,99052.84
2023-03-23T22:04:43.369Z,99039.31
2023-03-23T22:09:44.754Z,99033.31
2023-03-23T22:14:41.191Z,99017.22
2023-03-23T22:19:39.270Z,99010.28
2023-03-23T22:24:35.846Z,98998.38
2023-03-23T22:29:32.206Z,98994.41
2023-03-23T22:34:28.524Z,98984.63
2023-03-23T22:39:25.227Z,98981.72
2023-03-23T22:44:21.510Z,98970.25
2023-03-23T22:49:18.063Z,98966.63
2023-03-23T22:54:14.437Z,98959.31
2023-03-23T22:59:12.144Z,98957.19
2023-03-23T23:04:08.528Z,98957.22
2023-03-23T23:09:05.422Z,98961.06
2023-03-23T23:14:02.386Z,98960.75
2023-03-23T23:18:59.276Z,98950.91
2023-03-23T23:23:55.856Z,98946.13
2023-03-23T23:28:52.691Z,98942.75
2023-03-23T23:33:49.637Z,98937.53
2023-03-23T23:38:46.027Z,98932.00
2023-03-23T23:43:42.515Z,98933.31
2023-03-23T23:48:38.916Z,98929.63
2023-03-23T23:53:35.451Z,98932.63
2023-03-23T23:58:31.901Z,98931.63
